ASA115 PADK-PANC
Flight info
| Callsign | ASA115 |
|---|---|
| Flight time | N/A |
| Altitude | 25000 |
| Route | LONOK CAMBO DLG GASTO |
| Aircraft | DH8D/M-SDE2E3FGRY/H |
Departure
| Time | 2026-04-29 11:10 |
|---|---|
| Airport | Adak Airport (PADK) |
Arrival
| Time | N/A |
|---|---|
| Airport | Ted Stevens Anchorage International Airport (PANC) |
| Time | Latitude | Longitude | Altitude | Speed | Heading |
|---|---|---|---|---|---|
| 2026-04-29 10:52 | 51.87711 | -176.64339 | 16 ft | 0 kts | 287° |
| 2026-04-29 11:05 | 51.87717 | -176.64359 | 16 ft | 4 kts | 302° |
| 2026-04-29 11:05 | 51.87745 | -176.64429 | 13 ft | 9 kts | 304° |
| 2026-04-29 11:05 | 51.87809 | -176.64439 | 12 ft | 9 kts | 14° |
| 2026-04-29 11:06 | 51.87868 | -176.64420 | 12 ft | 7 kts | 10° |
| 2026-04-29 11:06 | 51.87902 | -176.64410 | 12 ft | 0 kts | 13° |
| 2026-04-29 11:06 | 51.87909 | -176.64404 | 13 ft | 3 kts | 37° |
| 2026-04-29 11:06 | 51.87962 | -176.64360 | 14 ft | 11 kts | 18° |
| 2026-04-29 11:07 | 51.88032 | -176.64378 | 13 ft | 12 kts | 289° |
| 2026-04-29 11:07 | 51.88060 | -176.64558 | 9 ft | 19 kts | 283° |
| 2026-04-29 11:07 | 51.88099 | -176.64777 | 7 ft | 18 kts | 291° |
| 2026-04-29 11:07 | 51.88105 | -176.64938 | 9 ft | 15 kts | 244° |
| 2026-04-29 11:08 | 51.88055 | -176.65111 | 10 ft | 18 kts | 239° |
| 2026-04-29 11:08 | 51.87984 | -176.65306 | 13 ft | 21 kts | 243° |
| 2026-04-29 11:08 | 51.87920 | -176.65511 | 18 ft | 19 kts | 244° |
| 2026-04-29 11:08 | 51.87852 | -176.65688 | 21 ft | 15 kts | 222° |
| 2026-04-29 11:09 | 51.87842 | -176.65730 | 23 ft | 6 kts | 44° |
| 2026-04-29 11:09 | 51.87848 | -176.65714 | 22 ft | 0 kts | 61° |
| 2026-04-29 11:09 | 51.87860 | -176.65681 | 21 ft | 25 kts | 60° |
| 2026-04-29 11:09 | 51.88094 | -176.65012 | 9 ft | 103 kts | 60° |
| 2026-04-29 11:10 | 51.88531 | -176.63763 | 40 ft | 144 kts | 60° |
| 2026-04-29 11:10 | 51.88994 | -176.62280 | 480 ft | 150 kts | 66° |
| 2026-04-29 11:10 | 51.89450 | -176.60863 | 1238 ft | 142 kts | 60° |
| 2026-04-29 11:10 | 51.89955 | -176.59479 | 1780 ft | 147 kts | 64° |
| 2026-04-29 11:11 | 51.90267 | -176.57898 | 2302 ft | 152 kts | 76° |
| 2026-04-29 11:11 | 51.90528 | -176.56194 | 2831 ft | 160 kts | 75° |
| 2026-04-29 11:11 | 51.90846 | -176.54457 | 3347 ft | 168 kts | 73° |
| 2026-04-29 11:11 | 51.91225 | -176.52611 | 3824 ft | 177 kts | 71° |
| 2026-04-29 11:12 | 51.91647 | -176.50717 | 4326 ft | 183 kts | 70° |
| 2026-04-29 11:12 | 51.92104 | -176.48755 | 4831 ft | 189 kts | 70° |
| 2026-04-29 11:12 | 51.92452 | -176.47299 | 5200 ft | 193 kts | 69° |
| 2026-04-29 11:13 | 51.87711 | -176.64339 | 16 ft | 0 kts | 287° |